Terminal Aerodrome Forecast
Issued by NWS Charleston, WV

Home | Current Version | Previous Version | Text Only | Print | Product List | Glossary On
Versions: 1 2 3 4 5 6 7 8 9 10 11 12 13 14 15 16 17 18 19 20 21 22
353
FTUS41 KRLX 011130
TAFCRW
TAF
KCRW 011130Z 0112/0212 00000KT 6SM SHRA SCT025 OVC080
     FM011400 21006KT P6SM -SHRA VCTS BKN070CB
     FM011600 22008G25KT P6SM VCTS BKN070CB
     FM012100 24007KT 5SM -TSRA BKN040CB
     FM020500 VRB03KT P6SM -SHRA VCTS OVC050CB
     FM020800 21004KT P6SM VCTS OVC015CB
     FM021000 21004KT P6SM BKN003=

USA.gov is the U.S. government's official web portal to all federal, state and local government web resources and services.